Time;durP1;ratioP1;P1;durP2;ratioP2;P2;SDS_P1;SDS_P2;PMS_P1;PMS_P2;Temp;Humidity;BMP_temperature;BMP_pressure;BME280_temperature;BME280_humidity;BME280_pressure;Samples;Min_cycle;Max_cycle;Signal;HPM_P1;HPM_P2
2023/07/12 00:01:46;;;;;;;6.17;1.60;;;17.50;89.00;;;;;;5089020;28;20043;-73
2023/07/12 00:04:12;;;;;;;6.00;1.67;;;17.50;88.90;;;;;;5068668;28;20036;-73
2023/07/12 00:06:39;;;;;;;3.50;1.50;;;17.50;88.70;;;;;;5072154;28;20040;-73
2023/07/12 00:09:10;;;;;;;2.70;1.00;;;17.50;88.70;;;;;;5071986;28;20185;-73
2023/07/12 00:11:36;;;;;;;3.97;1.20;;;17.40;88.50;;;;;;5070552;28;20375;-73
2023/07/12 00:14:01;;;;;;;4.00;1.30;;;17.40;88.70;;;;;;5072625;28;20333;-73
2023/07/12 00:16:33;;;;;;;4.03;1.20;;;17.40;88.70;;;;;;5088748;28;20047;-73
2023/07/12 00:18:59;;;;;;;7.77;1.60;;;17.40;88.60;;;;;;5071597;28;20048;-73
2023/07/12 00:21:29;;;;;;;3.33;1.33;;;17.40;88.80;;;;;;5062626;28;20297;-73
2023/07/12 00:24:00;;;;;;;5.40;1.50;;;17.40;89.10;;;;;;5071965;28;20841;-73
2023/07/12 00:26:36;;;;;;;4.93;1.37;;;17.40;89.10;;;;;;5088498;28;20289;-73
2023/07/12 00:29:05;;;;;;;4.13;1.20;;;17.40;89.20;;;;;;5071960;28;20298;-73
2023/07/12 00:31:32;;;;;;;6.13;1.73;;;17.40;89.80;;;;;;5075095;28;20286;-73
2023/07/12 00:33:58;;;;;;;5.43;1.50;;;17.40;89.90;;;;;;5074812;28;20377;-73
2023/07/12 00:36:30;;;;;;;5.43;2.13;;;17.40;90.90;;;;;;5090349;28;20427;-73
2023/07/12 00:38:57;;;;;;;7.80;1.63;;;17.40;91.10;;;;;;5079134;28;20549;-73
2023/07/12 00:41:58;;;;;;;7.03;1.80;;;17.40;90.50;;;;;;5108830;28;20327;-73
2023/07/12 00:44:29;;;;;;;5.33;2.10;;;17.40;91.30;;;;;;5036943;28;20676;-73
2023/07/12 00:46:57;;;;;;;7.70;2.27;;;17.40;91.30;;;;;;5075973;28;20290;-74
2023/07/12 00:49:23;;;;;;;5.83;2.20;;;17.40;91.40;;;;;;5092010;28;20839;-74
2023/07/12 00:52:00;;;;;;;6.90;1.90;;;17.40;91.80;;;;;;5086979;28;20277;-74
2023/07/12 00:54:47;;;;;;;7.07;2.10;;;17.40;91.70;;;;;;5091552;28;20292;-74
2023/07/12 00:57:13;;;;;;;15.23;2.97;;;17.40;92.30;;;;;;5071390;28;20286;-74
2023/07/12 00:59:39;;;;;;;8.00;3.27;;;17.40;93.00;;;;;;5108278;28;20839;-74
2023/07/12 01:02:05;;;;;;;7.57;2.43;;;17.40;93.00;;;;;;5088241;28;20063;-74
2023/07/12 01:04:37;;;;;;;7.53;2.43;;;17.40;92.60;;;;;;5070903;28;20282;-74
2023/07/12 01:07:03;;;;;;;8.77;2.47;;;17.40;92.60;;;;;;5091625;28;20761;-74
2023/07/12 01:09:32;;;;;;;6.57;2.47;;;17.40;92.10;;;;;;5091290;28;20281;-74
2023/07/12 01:11:59;;;;;;;9.83;2.90;;;17.40;92.00;;;;;;5091602;28;20902;-74
2023/07/12 01:14:25;;;;;;;10.50;2.73;;;17.40;92.30;;;;;;5092634;28;20652;-74
2023/07/12 01:16:57;;;;;;;10.00;2.67;;;17.40;92.10;;;;;;5091223;28;20293;-74
2023/07/12 01:19:23;;;;;;;11.73;2.87;;;17.40;92.00;;;;;;5078021;28;20297;-73
2023/07/12 01:21:53;;;;;;;11.40;3.00;;;17.50;91.80;;;;;;5073836;28;20871;-73
2023/07/12 01:24:21;;;;;;;8.80;2.40;;;17.50;91.80;;;;;;5074203;28;20040;-73
2023/07/12 01:26:49;;;;;;;12.80;2.70;;;17.50;91.50;;;;;;5085731;28;20314;-73
2023/07/12 01:29:15;;;;;;;8.97;3.17;;;17.40;91.60;;;;;;5087273;28;20327;-73
2023/07/12 01:31:42;;;;;;;7.43;2.40;;;17.40;91.50;;;;;;5073841;28;20293;-73
2023/07/12 01:34:09;;;;;;;10.33;2.50;;;17.40;91.70;;;;;;5091014;28;20640;-73
2023/07/12 01:36:35;;;;;;;11.30;3.07;;;17.40;91.60;;;;;;5074109;28;20277;-73
2023/07/12 01:39:03;;;;;;;11.83;3.17;;;17.40;91.40;;;;;;5070740;28;20297;-73
2023/07/12 01:41:29;;;;;;;8.13;2.40;;;17.40;91.70;;;;;;5090932;28;20357;-73
2023/07/12 01:43:54;;;;;;;8.50;2.83;;;17.40;92.40;;;;;;5090106;28;20381;-73
2023/07/12 01:46:21;;;;;;;8.27;2.90;;;17.40;92.50;;;;;;5087102;28;20051;-73
2023/07/12 01:48:47;;;;;;;13.67;2.70;;;17.40;91.90;;;;;;5092177;28;20518;-74
2023/07/12 01:51:14;;;;;;;13.40;3.40;;;17.30;92.60;;;;;;5088147;28;20324;-73
2023/07/12 01:53:40;;;;;;;12.00;3.17;;;17.30;92.50;;;;;;5090817;28;20288;-73
2023/07/12 01:56:07;;;;;;;6.30;2.87;;;17.40;93.50;;;;;;5099162;28;20281;-73
2023/07/12 01:58:33;;;;;;;11.67;3.33;;;17.30;93.30;;;;;;5091863;28;20316;-73
2023/07/12 02:00:59;;;;;;;10.83;2.93;;;17.30;93.20;;;;;;5090507;28;20306;-73
2023/07/12 02:03:25;;;;;;;13.03;3.57;;;17.30;93.70;;;;;;5099987;28;20281;-73
2023/07/12 02:05:51;;;;;;;14.70;3.77;;;17.30;93.80;;;;;;5091064;28;20092;-73
2023/07/12 02:08:17;;;;;;;13.47;3.90;;;17.30;93.60;;;;;;5105773;28;20285;-73
2023/07/12 02:10:43;;;;;;;13.00;3.50;;;17.30;93.90;;;;;;5074068;28;20127;-74
2023/07/12 02:13:08;;;;;;;15.90;4.13;;;17.30;93.50;;;;;;5073133;28;20039;-73
2023/07/12 02:15:34;;;;;;;14.47;4.07;;;17.30;93.50;;;;;;5090484;28;20047;-73
2023/07/12 02:18:01;;;;;;;14.50;4.13;;;17.40;93.60;;;;;;5077027;28;20403;-73
2023/07/12 02:20:27;;;;;;;10.43;3.23;;;17.40;93.70;;;;;;5091572;28;20161;-73
2023/07/12 02:22:53;;;;;;;13.57;3.77;;;17.40;93.80;;;;;;5086743;28;20794;-73
2023/07/12 02:25:20;;;;;;;11.10;3.30;;;17.40;93.90;;;;;;5091121;28;20124;-73
2023/07/12 02:27:47;;;;;;;14.40;3.27;;;17.40;94.30;;;;;;5107375;28;20040;-73
2023/07/12 02:30:16;;;;;;;12.07;3.63;;;17.40;94.80;;;;;;5089929;28;20373;-73
2023/07/12 02:32:43;;;;;;;10.13;3.70;;;17.40;94.40;;;;;;5092273;28;20360;-73
2023/07/12 02:35:09;;;;;;;15.43;4.23;;;17.40;94.60;;;;;;5077524;28;20289;-73
2023/07/12 02:37:35;;;;;;;11.50;3.43;;;17.50;95.40;;;;;;5094066;28;20803;-73
2023/07/12 02:40:03;;;;;;;11.70;3.70;;;17.40;95.30;;;;;;5094159;28;20051;-73
2023/07/12 02:42:28;;;;;;;16.03;3.87;;;17.50;95.30;;;;;;5074383;28;20348;-73
2023/07/12 02:44:54;;;;;;;16.53;3.70;;;17.50;95.10;;;;;;5093450;28;20381;-73
2023/07/12 02:47:20;;;;;;;12.60;3.63;;;17.60;95.70;;;;;;5094128;28;20043;-73
2023/07/12 02:49:45;;;;;;;14.73;3.90;;;17.60;95.40;;;;;;5077298;28;20032;-73
2023/07/12 02:52:11;;;;;;;17.27;4.97;;;17.60;95.20;;;;;;5093900;28;20092;-73
2023/07/12 02:54:37;;;;;;;14.00;3.57;;;17.60;95.10;;;;;;5093832;28;20373;-73
2023/07/12 02:57:04;;;;;;;12.80;3.60;;;17.60;95.40;;;;;;5079709;28;20175;-73
2023/07/12 02:59:30;;;;;;;19.90;4.43;;;17.60;95.30;;;;;;5097039;28;20073;-73
2023/07/12 03:01:56;;;;;;;11.80;3.50;;;17.60;95.30;;;;;;5080323;28;20262;-73
2023/07/12 03:04:22;;;;;;;12.93;3.57;;;17.60;95.20;;;;;;5110700;28;20284;-73
2023/07/12 03:06:48;;;;;;;18.00;4.50;;;17.60;95.40;;;;;;5091959;28;20042;-74
2023/07/12 03:09:14;;;;;;;15.43;4.00;;;17.60;95.50;;;;;;5076631;28;20278;-74
2023/07/12 03:11:40;;;;;;;15.93;4.23;;;17.60;95.50;;;;;;5076316;28;20476;-73
2023/07/12 03:14:06;;;;;;;13.90;3.97;;;17.60;95.10;;;;;;5096978;28;20663;-73
2023/07/12 03:16:32;;;;;;;16.90;4.03;;;17.60;95.10;;;;;;5060144;28;20051;-73
2023/07/12 03:19:00;;;;;;;27.10;4.57;;;17.60;95.10;;;;;;5093099;28;20047;-73
2023/07/12 03:21:26;;;;;;;17.90;3.87;;;17.60;95.90;;;;;;5091925;28;20856;-74
2023/07/12 03:23:52;;;;;;;16.47;4.07;;;17.60;96.30;;;;;;5093371;28;20300;-73
2023/07/12 03:26:18;;;;;;;14.67;4.07;;;17.60;96.00;;;;;;5074093;28;20274;-73
2023/07/12 03:28:44;;;;;;;19.90;4.60;;;17.60;96.70;;;;;;5084777;28;20277;-73
2023/07/12 03:31:13;;;;;;;20.50;4.57;;;17.60;96.60;;;;;;5088056;28;20533;-73
2023/07/12 03:33:39;;;;;;;15.20;4.10;;;17.60;96.90;;;;;;5083914;28;20130;-74
2023/07/12 03:36:05;;;;;;;13.70;4.13;;;17.60;96.60;;;;;;5077218;28;20273;-74
2023/07/12 03:38:31;;;;;;;17.67;4.67;;;17.50;96.60;;;;;;5092090;28;20309;-74
2023/07/12 03:41:00;;;;;;;15.43;4.63;;;17.50;96.40;;;;;;5092296;28;20277;-74
2023/07/12 03:43:26;;;;;;;15.87;4.60;;;17.50;96.50;;;;;;5072514;28;20447;-74
2023/07/12 03:45:53;;;;;;;15.60;4.43;;;17.50;96.70;;;;;;5078997;28;20764;-74
2023/07/12 03:48:20;;;;;;;21.07;4.77;;;17.50;96.70;;;;;;5093123;28;20277;-74
2023/07/12 03:50:50;;;;;;;20.83;4.77;;;17.50;97.30;;;;;;5078969;28;20292;-74
2023/07/12 03:53:16;;;;;;;22.97;4.47;;;17.40;97.50;;;;;;5083115;28;20644;-73
2023/07/12 03:55:43;;;;;;;16.60;3.70;;;17.40;97.70;;;;;;5062658;28;20277;-73
2023/07/12 03:58:14;;;;;;;17.70;4.70;;;17.40;98.10;;;;;;5092254;28;20776;-73
2023/07/12 04:00:45;;;;;;;19.80;4.63;;;17.40;97.70;;;;;;5075821;28;20262;-73
2023/07/12 04:03:11;;;;;;;16.23;5.33;;;17.40;97.10;;;;;;5104125;28;20281;-73
2023/07/12 04:05:38;;;;;;;16.40;4.20;;;17.40;97.10;;;;;;5104280;28;20284;-73
2023/07/12 04:08:04;;;;;;;15.90;4.40;;;17.40;97.00;;;;;;5075580;28;20677;-73
2023/07/12 04:10:30;;;;;;;18.60;4.83;;;17.40;96.70;;;;;;5075891;28;20765;-73
2023/07/12 04:12:56;;;;;;;19.33;4.87;;;17.30;96.70;;;;;;5075219;28;20282;-73
2023/07/12 04:15:22;;;;;;;18.33;4.50;;;17.30;96.40;;;;;;5098139;28;20347;-73
2023/07/12 04:17:48;;;;;;;20.87;4.80;;;17.20;97.00;;;;;;5092248;28;20791;-73
2023/07/12 04:20:14;;;;;;;19.23;5.20;;;17.20;97.30;;;;;;5094337;28;20032;-73
2023/07/12 04:22:40;;;;;;;20.60;4.77;;;17.20;97.80;;;;;;5092249;28;20042;-73
2023/07/12 04:25:08;;;;;;;19.57;4.90;;;17.20;98.10;;;;;;5092218;28;20043;-73
2023/07/12 04:27:37;;;;;;;28.70;6.57;;;17.30;98.10;;;;;;5073904;28;20321;-73
2023/07/12 04:30:08;;;;;;;23.63;5.43;;;17.30;98.30;;;;;;5069991;28;20329;-74
2023/07/12 04:32:34;;;;;;;20.80;5.37;;;17.40;98.00;;;;;;5088836;28;20281;-73
2023/07/12 04:35:01;;;;;;;21.23;5.10;;;17.50;97.80;;;;;;5097749;28;20289;-73
2023/07/12 04:37:26;;;;;;;23.10;5.67;;;17.50;97.30;;;;;;5073869;28;20281;-73
2023/07/12 04:39:52;;;;;;;22.30;5.20;;;17.60;97.20;;;;;;5074999;28;20308;-73
2023/07/12 04:42:18;;;;;;;21.20;5.23;;;17.70;96.80;;;;;;5074866;28;20792;-74
2023/07/12 04:44:44;;;;;;;18.17;4.87;;;17.80;96.30;;;;;;5084729;28;20080;-74
2023/07/12 04:47:10;;;;;;;22.10;5.53;;;17.90;96.30;;;;;;5078715;28;20572;-74
2023/07/12 04:49:36;;;;;;;18.57;5.47;;;17.90;95.50;;;;;;5084803;28;20495;-73
2023/07/12 04:52:04;;;;;;;15.70;4.20;;;17.90;95.20;;;;;;5073808;28;20039;-74
2023/07/12 04:54:33;;;;;;;18.47;5.10;;;17.90;95.20;;;;;;5071692;28;20363;-74
2023/07/12 04:56:59;;;;;;;22.93;4.83;;;17.90;94.80;;;;;;5075693;28;20292;-74
2023/07/12 04:59:25;;;;;;;17.00;4.70;;;17.90;94.50;;;;;;5071571;28;20305;-74
2023/07/12 05:01:51;;;;;;;22.13;4.60;;;17.80;94.50;;;;;;5070494;28;20380;-74
2023/07/12 05:04:17;;;;;;;19.23;5.30;;;17.80;94.60;;;;;;5099818;28;20062;-74
2023/07/12 05:06:44;;;;;;;19.23;4.67;;;17.80;94.30;;;;;;5079517;28;20281;-74
2023/07/12 05:09:10;;;;;;;21.47;4.90;;;17.80;94.20;;;;;;5074192;28;20297;-74
2023/07/12 05:11:37;;;;;;;16.03;4.47;;;17.80;94.20;;;;;;5081315;28;20289;-74
2023/07/12 05:14:02;;;;;;;16.70;4.90;;;18.10;94.10;;;;;;5066708;28;20289;-74
2023/07/12 05:16:28;;;;;;;14.93;4.60;;;18.60;92.20;;;;;;5072236;28;20289;-74
2023/07/12 05:18:54;;;;;;;12.83;4.07;;;19.40;90.30;;;;;;5073865;28;20066;-74
2023/07/12 05:21:20;;;;;;;18.20;4.47;;;20.00;86.20;;;;;;5073926;28;20040;-74
2023/07/12 05:23:46;;;;;;;13.57;4.10;;;20.40;83.80;;;;;;5082208;28;20064;-74
2023/07/12 05:26:12;;;;;;;18.77;4.83;;;20.80;81.50;;;;;;5090773;28;20035;-74
2023/07/12 05:28:38;;;;;;;17.63;4.93;;;20.80;80.50;;;;;;5091374;28;20490;-74
2023/07/12 05:31:11;;;;;;;16.37;4.83;;;20.60;80.60;;;;;;5091149;28;20398;-74
2023/07/12 05:33:41;;;;;;;17.63;5.07;;;20.50;81.00;;;;;;5068737;28;20044;-74
2023/07/12 05:36:07;;;;;;;16.17;3.50;;;20.40;81.70;;;;;;5070352;28;20285;-74
2023/07/12 05:38:33;;;;;;;15.50;3.60;;;20.50;81.80;;;;;;5074593;28;20297;-74
2023/07/12 05:40:59;;;;;;;15.67;4.30;;;20.40;82.00;;;;;;5091205;28;20040;-74
2023/07/12 05:43:25;;;;;;;14.93;4.20;;;20.40;81.70;;;;;;5082092;28;20495;-74
2023/07/12 05:45:52;;;;;;;15.73;4.10;;;20.70;81.10;;;;;;5089132;28;20784;-74
2023/07/12 05:48:18;;;;;;;16.23;4.13;;;21.20;78.90;;;;;;5100640;28;20285;-74
2023/07/12 05:50:50;;;;;;;15.13;4.73;;;21.60;77.60;;;;;;5107861;28;20044;-74
2023/07/12 05:53:15;;;;;;;16.53;4.73;;;21.90;75.40;;;;;;5080965;28;20036;-74
2023/07/12 05:55:41;;;;;;;16.80;4.10;;;21.40;76.10;;;;;;5084385;28;20487;-74
2023/07/12 05:58:07;;;;;;;19.20;4.67;;;20.60;78.30;;;;;;5067431;28;20082;-74
2023/07/12 06:00:32;;;;;;;18.40;4.40;;;19.90;80.40;;;;;;5091046;28;20042;-73
2023/07/12 06:02:58;;;;;;;19.30;4.40;;;19.60;82.60;;;;;;5091087;28;20067;-73
2023/07/12 06:05:24;;;;;;;21.80;4.87;;;19.40;83.90;;;;;;5090876;28;20032;-73
2023/07/12 06:07:50;;;;;;;18.33;4.63;;;19.40;85.00;;;;;;5093241;28;20679;-73
2023/07/12 06:10:16;;;;;;;18.70;4.80;;;19.30;86.70;;;;;;5077776;28;20044;-75
2023/07/12 06:12:42;;;;;;;20.23;4.90;;;19.60;86.80;;;;;;5094669;28;20568;-74
2023/07/12 06:15:08;;;;;;;18.10;4.70;;;19.60;85.10;;;;;;5094755;28;20093;-74
2023/07/12 06:17:34;;;;;;;17.47;5.00;;;19.40;85.40;;;;;;5094587;28;20047;-74
2023/07/12 06:20:00;;;;;;;14.87;3.87;;;19.20;86.50;;;;;;5077160;28;20042;-74
2023/07/12 06:22:25;;;;;;;17.60;4.50;;;19.50;85.80;;;;;;5077590;28;20067;-74
2023/07/12 06:24:51;;;;;;;19.93;4.60;;;20.10;83.20;;;;;;5108504;28;20044;-74
2023/07/12 06:27:17;;;;;;;18.73;4.90;;;20.60;82.40;;;;;;5085044;28;20119;-74
2023/07/12 06:29:45;;;;;;;15.00;4.27;;;20.90;80.70;;;;;;5107463;28;20052;-74
2023/07/12 06:32:12;;;;;;;17.23;5.00;;;21.30;79.30;;;;;;5105161;28;20035;-74
2023/07/12 06:34:38;;;;;;;15.83;4.10;;;21.50;78.40;;;;;;5111522;28;20040;-74
2023/07/12 06:37:04;;;;;;;16.67;3.77;;;21.70;76.00;;;;;;5094201;28;20124;-74
2023/07/12 06:39:30;;;;;;;15.83;3.80;;;21.30;75.60;;;;;;5090275;28;20119;-74
2023/07/12 06:41:56;;;;;;;16.27;4.30;;;21.00;77.00;;;;;;5094392;28;20040;-74
2023/07/12 06:44:21;;;;;;;13.10;3.43;;;20.80;77.70;;;;;;5094562;28;20028;-74
2023/07/12 06:46:47;;;;;;;19.57;4.07;;;20.50;78.20;;;;;;5094540;28;20036;-74
2023/07/12 06:49:15;;;;;;;15.20;4.50;;;20.30;79.10;;;;;;5094589;28;20043;-74
2023/07/12 06:51:46;;;;;;;15.50;3.80;;;20.00;81.10;;;;;;5098160;28;20042;-74
2023/07/12 06:54:15;;;;;;;13.13;3.47;;;19.70;82.60;;;;;;5108964;28;20055;-74
2023/07/12 06:56:41;;;;;;;11.27;3.40;;;19.50;83.10;;;;;;5090821;28;20051;-74
2023/07/12 06:59:08;;;;;;;11.73;3.63;;;19.30;82.50;;;;;;5107125;28;20105;-74
2023/07/12 07:01:34;;;;;;;10.63;3.10;;;19.30;83.40;;;;;;5091878;28;20433;-74
2023/07/12 07:04:00;;;;;;;14.23;3.10;;;19.50;84.10;;;;;;5113088;28;20035;-74
2023/07/12 07:06:26;;;;;;;12.03;2.90;;;19.80;82.60;;;;;;5100585;28;20073;-74
2023/07/12 07:08:52;;;;;;;12.57;3.40;;;20.00;81.50;;;;;;5090053;28;20074;-73
2023/07/12 07:11:17;;;;;;;13.87;3.40;;;20.10;82.50;;;;;;5095870;28;20038;-74
2023/07/12 07:13:43;;;;;;;7.93;3.07;;;20.00;82.70;;;;;;5106797;28;20055;-73
2023/07/12 07:16:12;;;;;;;10.53;3.37;;;19.80;83.10;;;;;;5078535;28;20047;-74
2023/07/12 07:18:38;;;;;;;10.63;3.23;;;19.60;83.60;;;;;;5094243;28;20640;-74
2023/07/12 07:21:04;;;;;;;17.40;4.40;;;19.40;85.00;;;;;;5091286;28;20040;-74
2023/07/12 07:23:30;;;;;;;13.87;3.73;;;19.30;85.80;;;;;;5078672;28;20126;-74
2023/07/12 07:26:03;;;;;;;12.47;3.80;;;19.30;85.20;;;;;;5095176;28;20114;-74
2023/07/12 07:28:29;;;;;;;11.37;3.50;;;19.20;85.10;;;;;;5082169;28;20048;-74
2023/07/12 07:30:56;;;;;;;16.67;4.23;;;19.10;85.80;;;;;;5078014;28;20051;-74
2023/07/12 07:33:22;;;;;;;9.07;3.30;;;19.30;86.70;;;;;;5078404;28;20085;-74
2023/07/12 07:35:48;;;;;;;8.40;2.47;;;19.60;83.70;;;;;;5078412;28;20207;-74
2023/07/12 07:38:14;;;;;;;9.90;2.70;;;19.80;82.40;;;;;;5077392;28;20059;-74
2023/07/12 07:40:40;;;;;;;8.07;2.57;;;19.90;80.20;;;;;;5107465;28;20035;-73
2023/07/12 07:43:11;;;;;;;11.07;3.00;;;19.90;80.40;;;;;;5094120;28;20032;-73
2023/07/12 07:45:37;;;;;;;9.87;2.67;;;20.00;80.90;;;;;;5094673;28;20066;-74
2023/07/12 07:48:03;;;;;;;8.10;2.70;;;20.00;79.80;;;;;;5102300;28;20039;-74
2023/07/12 07:50:31;;;;;;;8.73;2.63;;;19.90;80.00;;;;;;5096180;28;20046;-74
2023/07/12 07:52:57;;;;;;;11.23;3.47;;;19.80;80.20;;;;;;5085751;28;20506;-74
2023/07/12 07:55:22;;;;;;;12.07;3.60;;;19.50;81.00;;;;;;5078011;28;20043;-75
2023/07/12 07:57:48;;;;;;;15.47;3.37;;;19.30;83.20;;;;;;5078955;28;20058;-74
2023/07/12 08:00:15;;;;;;;8.73;2.90;;;19.00;85.60;;;;;;5091943;28;20126;-74
2023/07/12 08:02:42;;;;;;;7.30;2.53;;;18.70;86.90;;;;;;5104938;28;20031;-74
2023/07/12 08:05:08;;;;;;;9.67;2.67;;;18.60;87.40;;;;;;5079594;28;20569;-74
2023/07/12 08:07:43;;;;;;;8.37;2.90;;;18.60;87.60;;;;;;5104546;28;20326;-74
2023/07/12 08:10:12;;;;;;;11.55;3.25;;;18.70;88.50;;;;;;5112041;28;20407;-74
2023/07/12 08:12:38;;;;;;;10.13;2.60;;;19.00;89.90;;;;;;5094817;28;20035;-74
2023/07/12 08:15:04;;;;;;;9.47;2.63;;;19.30;88.90;;;;;;5104923;28;20122;-74
2023/07/12 08:17:30;;;;;;;11.30;3.00;;;19.50;88.60;;;;;;5078531;28;20043;-73
2023/07/12 08:19:56;;;;;;;8.97;2.70;;;19.70;86.30;;;;;;5076861;28;20050;-73
2023/07/12 08:22:22;;;;;;;11.93;2.40;;;19.70;84.10;;;;;;5094466;28;20035;-73
2023/07/12 08:24:48;;;;;;;7.60;2.20;;;19.70;83.00;;;;;;5110139;28;20048;-73
2023/07/12 08:27:16;;;;;;;9.40;3.00;;;19.70;83.30;;;;;;5084979;28;20083;-73
2023/07/12 08:29:45;;;;;;;6.83;2.30;;;19.70;82.20;;;;;;5089181;28;20055;-73
2023/07/12 08:32:11;;;;;;;7.53;2.63;;;19.70;82.30;;;;;;5092396;28;20040;-73
2023/07/12 08:34:37;;;;;;;12.40;2.60;;;19.80;82.70;;;;;;5082210;28;20403;-73
2023/07/12 08:37:04;;;;;;;10.73;2.93;;;19.80;81.60;;;;;;5109011;28;20048;-73
2023/07/12 08:39:30;;;;;;;8.77;2.37;;;19.90;82.80;;;;;;5078423;28;20043;-73
2023/07/12 08:41:57;;;;;;;8.13;2.20;;;20.00;80.70;;;;;;5102272;28;20036;-73
2023/07/12 08:44:23;;;;;;;9.30;2.63;;;20.20;80.20;;;;;;5092435;28;20483;-73
2023/07/12 08:46:52;;;;;;;8.57;2.33;;;20.40;80.00;;;;;;5091989;28;20036;-73
2023/07/12 08:49:18;;;;;;;10.10;2.53;;;20.50;78.50;;;;;;5104494;28;20081;-73
2023/07/12 08:51:45;;;;;;;10.80;2.27;;;20.60;77.20;;;;;;5091578;28;20067;-73
2023/07/12 08:54:24;;;;;;;7.00;2.43;;;20.70;78.90;;;;;;5091829;28;20053;-73
2023/07/12 08:57:01;;;;;;;6.87;1.93;;;20.90;77.40;;;;;;5104661;28;20047;-73
2023/07/12 08:59:27;;;;;;;6.37;2.03;;;21.00;76.30;;;;;;5091606;28;20071;-73
2023/07/12 09:01:53;;;;;;;5.60;1.53;;;21.00;74.90;;;;;;5092660;28;20067;-73
2023/07/12 09:04:23;;;;;;;7.07;1.67;;;21.00;72.60;;;;;;5100436;28;20043;-73
2023/07/12 09:06:52;;;;;;;5.33;1.77;;;20.90;73.10;;;;;;5105422;28;20534;-73
2023/07/12 09:09:18;;;;;;;7.53;2.30;;;20.80;73.30;;;;;;5074536;28;20047;-73
2023/07/12 09:11:45;;;;;;;7.50;2.10;;;20.80;73.50;;;;;;5091316;28;20062;-73
2023/07/12 09:14:19;;;;;;;5.87;2.17;;;20.90;73.30;;;;;;5100541;28;20050;-73
2023/07/12 09:16:54;;;;;;;7.65;2.60;;;21.10;72.80;;;;;;5108978;28;20118;-73
2023/07/12 09:19:20;;;;;;;;;;;21.20;72.80;;;;;;5104554;28;20051;-73
2023/07/12 09:21:54;;;;;;;5.60;2.00;;;21.30;73.90;;;;;;5079250;28;20239;-73
2023/07/12 09:24:23;;;;;;;8.47;2.40;;;21.50;71.50;;;;;;5091286;28;20088;-73
2023/07/12 09:26:50;;;;;;;6.70;2.40;;;21.60;70.10;;;;;;5105447;28;20031;-73
2023/07/12 09:29:22;;;;;;;6.30;1.87;;;21.20;69.90;;;;;;5074182;28;20146;-72
2023/07/12 09:31:49;;;;;;;5.23;1.80;;;21.20;71.60;;;;;;5074653;28;20043;-73
2023/07/12 09:34:22;;;;;;;7.93;2.13;;;21.10;71.30;;;;;;5091439;28;20425;-73
2023/07/12 09:36:59;;;;;;;6.83;2.13;;;21.00;72.20;;;;;;5091335;28;20047;-73
2023/07/12 09:39:26;;;;;;;5.60;1.30;;;21.00;73.50;;;;;;5091142;28;20594;-72
2023/07/12 09:41:56;;;;;;;5.97;2.00;;;21.10;71.00;;;;;;5073933;28;20082;-72
2023/07/12 09:44:22;;;;;;;9.20;2.17;;;21.40;72.10;;;;;;5074700;28;20426;-72
2023/07/12 09:46:53;;;;;;;7.10;1.73;;;21.90;71.50;;;;;;5091336;28;20040;-73
2023/07/12 09:49:25;;;;;;;5.20;1.93;;;22.20;71.20;;;;;;5079174;28;20132;-72
2023/07/12 09:52:03;;;;;;;6.87;2.00;;;22.60;68.00;;;;;;5077933;28;20040;-72
2023/07/12 09:54:47;;;;;;;8.67;1.87;;;22.60;66.30;;;;;;5074285;28;20491;-72
2023/07/12 09:57:42;;;;;;;4.80;1.50;;;22.30;65.50;;;;;;5091350;28;20043;-72
2023/07/12 10:00:23;;;;;;;8.60;1.65;;;22.00;65.90;;;;;;5056351;28;20051;-72
2023/07/12 10:03:14;;;;;;;5.77;1.43;;;22.10;67.10;;;;;;5074009;28;20048;-72
2023/07/12 10:05:51;;;;;;;4.03;1.50;;;22.10;65.80;;;;;;5080344;28;20267;-72
2023/07/12 10:08:19;;;;;;;7.40;1.57;;;22.10;65.60;;;;;;5090611;28;20043;-72
2023/07/12 10:11:08;;;;;;;5.23;1.80;;;22.00;66.40;;;;;;5090742;28;20116;-72
2023/07/12 10:13:41;;;;;;;4.50;1.63;;;21.90;66.50;;;;;;5087753;28;20376;-72
2023/07/12 10:16:18;;;;;;;2.50;1.10;;;21.80;66.40;;;;;;5086195;28;20183;-72
2023/07/12 10:18:46;;;;;;;4.33;1.07;;;21.80;65.00;;;;;;5100490;28;20043;-72
2023/07/12 10:21:18;;;;;;;4.53;1.40;;;21.70;65.50;;;;;;5089028;28;20036;-72
2023/07/12 10:23:59;;;;;;;4.67;1.60;;;21.70;66.50;;;;;;5100294;28;20074;-72
2023/07/12 10:26:25;;;;;;;5.87;1.23;;;21.90;66.30;;;;;;5073642;28;20046;-72
2023/07/12 10:29:16;;;;;;;3.97;1.10;;;22.00;64.10;;;;;;5083672;28;20097;-72
2023/07/12 10:31:46;;;;;;;3.60;1.47;;;22.20;64.40;;;;;;5105801;28;20402;-73
2023/07/12 10:34:38;;;;;;;7.07;1.40;;;22.30;63.50;;;;;;5087156;28;20062;-73
2023/07/12 10:37:12;;;;;;;5.87;1.37;;;22.10;63.00;;;;;;5087199;28;20460;-73
2023/07/12 10:39:39;;;;;;;3.17;0.70;;;22.00;63.10;;;;;;5075983;28;20051;-73
2023/07/12 10:42:31;;;;;;;3.50;0.80;;;21.90;63.80;;;;;;5075523;28;20036;-73
2023/07/12 10:44:59;;;;;;;4.20;0.87;;;21.90;63.10;;;;;;5075520;28;20047;-73
2023/07/12 10:47:31;;;;;;;9.70;1.30;;;22.00;64.80;;;;;;5092437;28;20027;-73
2023/07/12 10:50:01;;;;;;;3.13;1.23;;;22.20;65.50;;;;;;5092512;28;20371;-73
2023/07/12 10:52:59;;;;;;;8.00;1.37;;;22.50;63.20;;;;;;5087353;28;20040;-73
2023/07/12 10:55:34;;;;;;;7.63;1.07;;;22.40;62.60;;;;;;5078123;28;20098;-73
2023/07/12 10:58:18;;;;;;;;;;;22.40;63.40;;;;;;5096676;28;20043;-73
2023/07/12 11:00:58;;;;;;;3.83;1.17;;;22.30;61.10;;;;;;5113409;28;19924;-74
2023/07/12 11:03:41;;;;;;;3.97;1.00;;;22.30;63.10;;;;;;5114753;28;20040;-73
2023/07/12 11:06:22;;;;;;;5.03;1.00;;;22.40;63.40;;;;;;5115065;28;20042;-73
2023/07/12 11:08:59;;;;;;;8.03;1.70;;;22.40;61.00;;;;;;5114946;28;20388;-72
2023/07/12 11:11:30;;;;;;;6.00;1.77;;;22.50;62.90;;;;;;5096937;28;20051;-73
2023/07/12 11:14:11;;;;;;;4.17;0.90;;;22.70;62.40;;;;;;5097950;28;20140;-73
2023/07/12 11:17:04;;;;;;;2.33;0.50;;;22.60;61.20;;;;;;5085013;28;20051;-73
2023/07/12 11:19:36;;;;;;;6.67;1.10;;;22.60;58.70;;;;;;5074791;28;20056;-73
2023/07/12 11:22:24;;;;;;;4.33;0.87;;;22.80;59.10;;;;;;5101563;28;20074;-73
2023/07/12 11:25:21;;;;;;;3.70;0.57;;;22.70;57.60;;;;;;5108923;28;20039;-74
2023/07/12 11:27:47;;;;;;;2.90;0.83;;;22.40;59.20;;;;;;5086785;28;20993;-73
2023/07/12 11:30:28;;;;;;;2.13;0.70;;;22.30;60.30;;;;;;5084418;28;20156;-73
2023/07/12 11:33:12;;;;;;;5.40;0.80;;;22.30;60.60;;;;;;5079007;28;20051;-72
2023/07/12 11:35:53;;;;;;;4.77;0.70;;;22.50;61.30;;;;;;5095429;28;20047;-72
2023/07/12 11:38:23;;;;;;;3.53;0.60;;;22.50;59.40;;;;;;5095587;28;20047;-73
2023/07/12 11:40:52;;;;;;;3.27;0.70;;;22.70;59.90;;;;;;5094362;28;20039;-73
2023/07/12 11:43:24;;;;;;;5.30;0.47;;;22.70;58.70;;;;;;5106243;28;20039;-73
2023/07/12 11:45:53;;;;;;;3.47;0.70;;;22.50;56.60;;;;;;5099322;28;20043;-75
2023/07/12 11:48:19;;;;;;;3.67;0.70;;;22.20;58.20;;;;;;5095345;28;20370;-74
2023/07/12 11:50:49;;;;;;;2.83;0.50;;;22.10;59.80;;;;;;5109344;28;20124;-74
2023/07/12 11:53:15;;;;;;;2.87;0.63;;;22.20;59.20;;;;;;5078100;28;20038;-74
2023/07/12 11:55:41;;;;;;;3.00;0.50;;;22.10;58.60;;;;;;5096096;28;20031;-73
2023/07/12 11:58:21;;;;;;;3.50;0.50;;;22.10;57.10;;;;;;5104682;28;20039;-73
2023/07/12 12:00:49;;;;;;;2.60;0.30;;;22.00;56.90;;;;;;5082865;28;20251;-73
2023/07/12 12:03:16;;;;;;;3.23;0.67;;;22.10;56.70;;;;;;5094246;28;20543;-73
2023/07/12 12:05:44;;;;;;;4.73;0.40;;;22.10;57.30;;;;;;5094329;28;20514;-73
2023/07/12 12:08:24;;;;;;;3.43;0.63;;;22.20;56.00;;;;;;5081607;28;20043;-73
2023/07/12 12:10:50;;;;;;;3.53;0.60;;;22.30;56.80;;;;;;5103297;28;20051;-73
2023/07/12 12:13:23;;;;;;;4.83;0.70;;;22.40;58.90;;;;;;5089300;28;20046;-74
2023/07/12 12:16:15;;;;;;;4.20;0.60;;;22.40;58.70;;;;;;5079393;28;20046;-73
2023/07/12 12:18:50;;;;;;;2.23;0.40;;;22.50;57.80;;;;;;5087961;28;20074;-73
2023/07/12 12:21:17;;;;;;;2.57;0.43;;;22.60;57.50;;;;;;5077268;28;20047;-73
2023/07/12 12:23:51;;;;;;;3.77;0.63;;;22.60;56.00;;;;;;5094387;28;20043;-73
2023/07/12 12:26:27;;;;;;;2.30;0.53;;;22.60;56.80;;;;;;5107675;28;20043;-72
2023/07/12 12:28:58;;;;;;;4.50;0.50;;;22.60;57.60;;;;;;5108150;28;20226;-72
2023/07/12 12:31:26;;;;;;;2.17;0.37;;;22.50;56.60;;;;;;5106610;28;20051;-73
2023/07/12 12:34:15;;;;;;;2.77;0.30;;;22.50;56.20;;;;;;5094075;28;20119;-73
2023/07/12 12:37:15;;;;;;;3.17;0.47;;;22.50;52.60;;;;;;5102978;28;20047;-72
2023/07/12 12:39:47;;;;;;;3.80;0.67;;;22.60;53.90;;;;;;5062160;28;20121;-73
2023/07/12 12:42:18;;;;;;;1.90;0.40;;;22.60;55.60;;;;;;5089923;28;20044;-73
2023/07/12 12:44:44;;;;;;;4.13;0.50;;;22.60;55.00;;;;;;5110243;28;20032;-74
2023/07/12 12:47:19;;;;;;;2.23;0.40;;;22.70;55.00;;;;;;5110620;28;20552;-73
2023/07/12 12:49:46;;;;;;;3.22;0.45;;;22.80;54.10;;;;;;5093282;28;20036;-72
2023/07/12 12:52:28;;;;;;;1.13;0.30;;;22.90;54.10;;;;;;5088049;28;20124;-73
2023/07/12 12:54:59;;;;;;;1.47;0.33;;;22.80;52.60;;;;;;5076709;28;20054;-72